Time;durP1;ratioP1;P1;durP2;ratioP2;P2;SDS_P1;SDS_P2;PMS_P1;PMS_P2;Temp;Humidity;BMP_temperature;BMP_pressure;BME280_temperature;BME280_humidity;BME280_pressure;Samples;Min_cycle;Max_cycle;Signal;HPM_P1;HPM_P2
2022/03/26 00:02:16;;;;;;;32.30;15.35;;;;;;;5.00;59.46;100648.09;4969758;28;20051;-52
2022/03/26 00:04:42;;;;;;;32.83;14.77;;;;;;;4.97;59.26;100644.78;4969618;28;20031;-49
2022/03/26 00:07:07;;;;;;;39.88;16.63;;;;;;;5.23;62.97;100646.34;4949158;28;20139;-51
2022/03/26 00:09:33;;;;;;;36.53;16.02;;;;;;;5.40;58.75;100642.59;4938976;29;20537;-50
2022/03/26 00:11:58;;;;;;;33.45;16.10;;;;;;;5.45;58.46;100646.56;4933169;28;20051;-50
2022/03/26 00:14:24;;;;;;;32.63;15.57;;;;;;;5.34;59.15;100645.97;4932950;29;20027;-50
2022/03/26 00:16:49;;;;;;;40.95;16.52;;;;;;;5.30;59.36;100649.97;4940247;28;20069;-50
2022/03/26 00:19:15;;;;;;;33.22;15.55;;;;;;;5.40;58.76;100650.56;4936261;28;20024;-52
2022/03/26 00:21:41;;;;;;;42.25;16.88;;;;;;;5.25;58.78;100644.34;4933028;28;20058;-51
2022/03/26 00:24:06;;;;;;;31.60;16.27;;;;;;;5.12;59.33;100649.38;4942709;29;20110;-53
2022/03/26 00:26:32;;;;;;;32.65;15.75;;;;;;;5.14;61.77;100647.34;4945777;28;20137;-51
2022/03/26 00:28:58;;;;;;;33.38;15.02;;;;;;;5.12;62.52;100655.53;4938234;29;20386;-51
2022/03/26 00:31:24;;;;;;;35.22;16.70;;;;;;;5.00;59.39;100645.44;4932705;28;20032;-52
2022/03/26 00:33:49;;;;;;;40.42;15.77;;;;;;;5.05;65.09;100656.38;4932610;29;20371;-52
2022/03/26 00:36:15;;;;;;;32.42;15.73;;;;;;;4.83;60.57;100653.44;4932903;28;20040;-53
2022/03/26 00:38:40;;;;;;;32.03;14.63;;;;;;;4.88;60.67;100656.41;4933866;29;20031;-53
2022/03/26 00:41:05;;;;;;;31.23;14.93;;;;;;;4.89;62.36;100655.44;4940126;28;20754;-51
2022/03/26 00:43:31;;;;;;;33.22;15.38;;;;;;;4.77;60.88;100654.13;4938067;28;20360;-51
2022/03/26 00:45:56;;;;;;;29.77;14.60;;;;;;;4.78;61.13;100661.09;4934816;28;20577;-51
2022/03/26 00:48:23;;;;;;;30.25;15.20;;;;;;;4.86;60.33;100658.41;4941777;28;20036;-50
2022/03/26 00:50:48;;;;;;;33.08;16.35;;;;;;;4.80;61.67;100667.06;4933768;28;20179;-52
2022/03/26 00:53:14;;;;;;;31.80;15.88;;;;;;;4.96;61.36;100667.00;4933232;29;20056;-49
2022/03/26 00:55:39;;;;;;;33.42;15.18;;;;;;;4.65;60.66;100666.13;4931079;28;20850;-53
2022/03/26 00:58:05;;;;;;;31.75;15.20;;;;;;;5.18;61.74;100676.09;4932242;29;20032;-51
2022/03/26 01:00:30;;;;;;;34.10;14.70;;;;;;;5.41;60.48;100673.50;4931455;28;20043;-50
2022/03/26 01:02:56;;;;;;;34.10;14.55;;;;;;;5.28;61.33;100667.09;4932444;29;20031;-49
2022/03/26 01:05:22;;;;;;;27.10;14.30;;;;;;;5.02;60.54;100667.31;4928586;28;20568;-51
2022/03/26 01:07:47;;;;;;;31.55;14.85;;;;;;;4.91;59.37;100668.53;4969649;28;20044;-50
2022/03/26 01:10:13;;;;;;;27.73;13.60;;;;;;;4.84;61.33;100672.88;4935014;28;20036;-52
2022/03/26 01:12:38;;;;;;;31.25;14.48;;;;;;;4.76;66.28;100668.41;4933310;28;20375;-49
2022/03/26 01:15:04;;;;;;;29.63;14.00;;;;;;;4.33;64.10;100667.78;4931815;28;20513;-51
2022/03/26 01:17:30;;;;;;;32.17;14.23;;;;;;;4.63;60.90;100657.47;4932840;28;20182;-49
2022/03/26 01:19:55;;;;;;;31.75;14.00;;;;;;;4.97;58.44;100650.09;4932306;29;20545;-50
2022/03/26 01:22:21;;;;;;;32.20;13.75;;;;;;;4.69;59.44;100656.78;4932198;28;20051;-49
2022/03/26 01:24:46;;;;;;;27.30;13.50;;;;;;;4.63;62.27;100658.31;4933072;29;20147;-52
2022/03/26 01:27:12;;;;;;;28.48;14.50;;;;;;;4.39;61.29;100648.53;4931140;28;20047;-50
2022/03/26 01:29:38;;;;;;;29.83;13.45;;;;;;;4.33;64.65;100652.69;4931768;28;20030;-50
2022/03/26 01:32:07;;;;;;;27.33;13.48;;;;;;;4.14;67.71;100652.19;4932744;28;20514;-51
2022/03/26 01:34:33;;;;;;;27.35;13.43;;;;;;;4.05;63.39;100654.84;4932691;28;20509;-49
2022/03/26 01:36:58;;;;;;;27.95;13.05;;;;;;;4.14;63.72;100653.03;4932583;28;20078;-50
2022/03/26 01:39:24;;;;;;;31.42;14.18;;;;;;;3.93;62.49;100650.03;4932788;29;20043;-49
2022/03/26 01:41:49;;;;;;;30.52;14.90;;;;;;;3.85;66.67;100649.03;4938493;28;20044;-53
2022/03/26 01:44:15;;;;;;;34.20;14.63;;;;;;;3.57;65.66;100656.44;4935373;29;20461;-51
2022/03/26 01:46:47;;;;;;;32.95;15.32;;;;;;;3.46;66.40;100649.59;4951333;28;20047;-52
2022/03/26 01:49:13;;;;;;;29.92;15.18;;;;;;;3.53;67.31;100643.66;4961134;28;20115;-50
2022/03/26 01:51:38;;;;;;;30.02;13.52;;;;;;;3.52;64.20;100648.16;4954314;28;20043;-51
2022/03/26 01:54:04;;;;;;;27.63;13.85;;;;;;;3.52;64.09;100645.50;4936590;29;20044;-50
2022/03/26 01:56:29;;;;;;;33.13;14.27;;;;;;;3.57;64.08;100651.16;4941941;28;20305;-50
2022/03/26 01:58:54;;;;;;;29.52;13.90;;;;;;;3.82;68.30;100644.06;4941790;29;20469;-49
2022/03/26 02:01:20;;;;;;;31.48;14.65;;;;;;;3.66;63.80;100647.50;4941448;28;20039;-54
2022/03/26 02:03:45;;;;;;;29.83;13.27;;;;;;;3.95;62.86;100648.88;4941001;29;20036;-53
2022/03/26 02:06:11;;;;;;;29.48;13.35;;;;;;;3.80;63.12;100637.25;4948206;28;20167;-52
2022/03/26 02:08:36;;;;;;;29.40;14.13;;;;;;;3.79;62.38;100633.75;4946737;28;20031;-53
2022/03/26 02:11:02;;;;;;;28.48;13.60;;;;;;;3.77;64.13;100640.22;4943701;28;20105;-53
2022/03/26 02:13:47;;;;;;;33.10;14.77;;;;;;;3.78;63.14;100632.13;4942559;28;20031;-52
2022/03/26 02:16:14;;;;;;;29.77;14.18;;;;;;;3.77;63.95;100629.63;4941595;28;20057;-51
2022/03/26 02:18:40;;;;;;;32.22;13.35;;;;;;;3.67;63.79;100627.97;4943243;28;20589;-52
2022/03/26 02:21:05;;;;;;;34.10;13.57;;;;;;;3.88;65.58;100626.66;4947981;28;20051;-53
2022/03/26 02:23:30;;;;;;;29.70;13.35;;;;;;;3.86;63.97;100626.81;4941212;28;20721;-53
2022/03/26 02:25:56;;;;;;;32.13;13.60;;;;;;;3.83;63.85;100623.66;4945215;28;20039;-50
2022/03/26 02:28:22;;;;;;;29.42;13.63;;;;;;;3.53;65.30;100623.28;4946763;29;20038;-52
2022/03/26 02:30:47;;;;;;;29.40;14.18;;;;;;;3.42;67.91;100639.47;4942904;28;20055;-49
2022/03/26 02:33:13;;;;;;;27.38;13.52;;;;;;;3.37;65.47;100634.69;4936264;29;20145;-49
2022/03/26 02:35:38;;;;;;;30.35;14.15;;;;;;;3.72;66.56;100626.63;4944428;28;20039;-52
2022/03/26 02:38:04;;;;;;;28.13;13.63;;;;;;;3.76;67.71;100633.28;4942225;29;20039;-49
2022/03/26 02:40:29;;;;;;;28.60;14.40;;;;;;;3.53;66.18;100628.59;4948677;28;20577;-50
2022/03/26 02:42:55;;;;;;;31.75;12.80;;;;;;;3.56;71.56;100632.75;4948063;29;20558;-52
2022/03/26 02:45:20;;;;;;;29.63;13.23;;;;;;;3.71;67.43;100635.59;4947174;28;20051;-51
2022/03/26 02:47:48;;;;;;;29.42;13.05;;;;;;;3.90;71.14;100635.28;4947433;28;20035;-50
2022/03/26 02:50:14;;;;;;;32.08;13.85;;;;;;;4.14;69.50;100636.28;4932719;28;20393;-49
2022/03/26 02:52:39;;;;;;;29.40;12.60;;;;;;;4.32;69.90;100634.28;4949992;28;20027;-51
2022/03/26 02:55:07;;;;;;;25.98;12.55;;;;;;;4.17;63.71;100625.31;4963009;28;20039;-49
2022/03/26 02:57:32;;;;;;;29.65;12.70;;;;;;;4.09;63.05;100634.97;4950372;29;20056;-50
2022/03/26 02:59:58;;;;;;;29.35;12.55;;;;;;;4.10;69.36;100633.97;4950859;29;20593;-50
2022/03/26 03:02:23;;;;;;;29.52;12.52;;;;;;;3.92;64.88;100633.31;4950408;28;20058;-51
2022/03/26 03:04:49;;;;;;;24.77;12.77;;;;;;;3.95;63.67;100638.28;4943944;29;20027;-50
2022/03/26 03:07:14;;;;;;;29.35;12.90;;;;;;;3.91;65.19;100631.63;4941071;28;20449;-50
2022/03/26 03:09:40;;;;;;;30.10;13.00;;;;;;;3.74;63.88;100632.59;4933742;29;20039;-50
2022/03/26 03:12:06;;;;;;;26.00;11.95;;;;;;;4.00;65.38;100635.13;4947415;28;20043;-50
2022/03/26 03:14:32;;;;;;;24.98;12.63;;;;;;;3.71;64.05;100630.28;4944623;28;20043;-50
2022/03/26 03:16:57;;;;;;;31.08;12.07;;;;;;;4.01;65.93;100632.28;4951001;28;20047;-49
2022/03/26 03:19:23;;;;;;;28.90;12.65;;;;;;;3.70;63.74;100629.47;4934351;29;20031;-51
2022/03/26 03:21:48;;;;;;;27.10;12.90;;;;;;;3.46;64.87;100632.88;4947748;28;20044;-50
2022/03/26 03:24:13;;;;;;;33.67;13.23;;;;;;;3.43;67.47;100641.16;4943564;29;20043;-52
2022/03/26 03:26:39;;;;;;;31.67;13.18;;;;;;;3.39;68.92;100631.84;4940124;28;20051;-51
2022/03/26 03:29:04;;;;;;;26.38;13.30;;;;;;;3.24;68.63;100637.78;4944449;29;20501;-53
2022/03/26 03:31:30;;;;;;;32.88;12.68;;;;;;;3.03;67.88;100632.91;4962887;28;20046;-51
2022/03/26 03:33:55;;;;;;;24.98;12.18;;;;;;;3.10;72.07;100637.56;4968582;28;20035;-53
2022/03/26 03:36:21;;;;;;;27.00;12.98;;;;;;;3.10;68.01;100637.56;4965551;28;20042;-51
2022/03/26 03:38:47;;;;;;;24.45;12.23;;;;;;;2.91;67.97;100636.00;4954484;28;20109;-51
2022/03/26 03:41:12;;;;;;;28.60;13.02;;;;;;;2.86;67.74;100636.47;4965760;28;20046;-50
2022/03/26 03:43:38;;;;;;;26.05;12.55;;;;;;;2.87;70.26;100642.56;4970726;28;20479;-49
2022/03/26 03:46:03;;;;;;;24.60;11.38;;;;;;;2.70;70.29;100637.22;4970252;28;20078;-50
2022/03/26 03:48:29;;;;;;;26.73;13.68;;;;;;;2.97;72.05;100644.13;4966326;28;20035;-51
2022/03/26 03:50:54;;;;;;;31.08;13.63;;;;;;;2.92;71.54;100640.28;4969876;28;20062;-51
2022/03/26 03:53:20;;;;;;;27.48;13.27;;;;;;;2.83;70.68;100638.59;4967731;28;20047;-49
2022/03/26 03:55:45;;;;;;;26.02;13.63;;;;;;;2.81;70.37;100630.81;4964272;28;20043;-50
2022/03/26 03:58:10;;;;;;;30.38;13.43;;;;;;;2.86;70.58;100639.09;4982280;28;20038;-49
2022/03/26 04:00:36;;;;;;;35.40;13.85;;;;;;;2.85;70.61;100629.50;4970008;28;20061;-52
2022/03/26 04:03:01;;;;;;;34.75;14.13;;;;;;;2.82;68.86;100635.09;4965487;28;20062;-53
2022/03/26 04:05:27;;;;;;;31.38;13.85;;;;;;;3.14;69.35;100625.66;4965135;28;20400;-52
2022/03/26 04:07:52;;;;;;;30.08;13.00;;;;;;;3.11;67.32;100629.44;4969724;28;20031;-52
2022/03/26 04:10:18;;;;;;;31.13;12.52;;;;;;;2.95;68.18;100629.41;4958875;28;20042;-50
2022/03/26 04:12:43;;;;;;;25.48;12.70;;;;;;;2.88;68.50;100631.00;4958529;28;20554;-49
2022/03/26 04:15:10;;;;;;;24.90;12.38;;;;;;;2.52;68.63;100639.91;4966458;28;20193;-53
2022/03/26 04:17:35;;;;;;;22.98;12.10;;;;;;;2.43;69.55;100630.25;4970399;28;20045;-51
2022/03/26 04:20:08;;;;;;;25.77;13.63;;;;;;;2.33;69.69;100638.28;4965355;28;20055;-51
2022/03/26 04:22:33;;;;;;;29.27;12.73;;;;;;;2.22;72.50;100642.97;4970061;28;20062;-50
2022/03/26 04:24:59;;;;;;;30.50;14.10;;;;;;;1.97;74.09;100655.16;4964604;28;20039;-50
2022/03/26 04:27:24;;;;;;;26.02;11.95;;;;;;;2.19;77.07;100649.41;4965882;28;20035;-52
2022/03/26 04:29:50;;;;;;;26.63;13.55;;;;;;;2.14;77.68;100654.34;4968358;28;20034;-52
2022/03/26 04:32:15;;;;;;;29.45;13.48;;;;;;;2.03;72.41;100665.97;4969422;28;20097;-52
2022/03/26 04:34:41;;;;;;;29.58;12.82;;;;;;;1.94;72.65;100659.78;4969774;28;20027;-52
2022/03/26 04:37:06;;;;;;;26.90;13.73;;;;;;;2.04;75.04;100665.00;4935114;28;20094;-51
2022/03/26 04:39:32;;;;;;;29.52;14.65;;;;;;;2.04;72.64;100658.88;4948471;29;20066;-50
2022/03/26 04:41:57;;;;;;;31.55;14.38;;;;;;;2.18;73.98;100666.28;4948828;28;20580;-52
2022/03/26 04:44:23;;;;;;;33.05;14.82;;;;;;;2.33;74.32;100659.44;4939229;29;20036;-52
2022/03/26 04:46:48;;;;;;;38.72;14.95;;;;;;;2.38;72.10;100667.75;4940164;28;20043;-53
2022/03/26 04:49:14;;;;;;;35.42;14.23;;;;;;;2.64;72.33;100668.75;4942462;29;20035;-52
2022/03/26 04:51:39;;;;;;;31.45;14.73;;;;;;;2.73;71.00;100671.31;4943409;28;20378;-51
2022/03/26 04:54:04;;;;;;;31.95;14.48;;;;;;;2.74;72.30;100670.31;4940934;28;20569;-50
2022/03/26 04:56:30;;;;;;;32.65;14.35;;;;;;;2.60;74.04;100673.56;4947690;28;20449;-50
2022/03/26 04:58:55;;;;;;;27.70;13.57;;;;;;;2.47;72.80;100676.59;4942589;29;20050;-52
2022/03/26 05:01:23;;;;;;;41.40;15.35;;;;;;;2.56;73.37;100672.19;4940839;28;20078;-50
2022/03/26 05:03:49;;;;;;;35.20;16.75;;;;;;;2.77;71.40;100658.56;4949363;28;20077;-51
2022/03/26 05:06:15;;;;;;;29.77;13.35;;;;;;;2.78;71.81;100674.31;4957312;28;20501;-52
2022/03/26 05:08:40;;;;;;;31.08;13.77;;;;;;;2.12;71.51;100675.66;4959164;28;20046;-52
2022/03/26 05:11:06;;;;;;;33.13;15.38;;;;;;;1.73;72.73;100675.13;4961066;28;20053;-50
2022/03/26 05:13:31;;;;;;;25.05;13.38;;;;;;;1.38;74.16;100679.38;4966184;28;20023;-50
2022/03/26 05:15:57;;;;;;;33.13;13.55;;;;;;;1.29;75.72;100678.41;4967905;28;20485;-49
2022/03/26 05:18:22;;;;;;;29.15;13.65;;;;;;;1.35;79.34;100676.16;4958247;28;20470;-52
2022/03/26 05:20:48;;;;;;;30.13;14.35;;;;;;;1.27;76.73;100674.25;4954690;28;20397;-51
2022/03/26 05:23:13;;;;;;;32.97;13.95;;;;;;;1.33;76.10;100678.16;4960238;28;20440;-50
2022/03/26 05:25:39;;;;;;;39.10;14.90;;;;;;;1.58;76.05;100679.25;4964352;28;20047;-51
2022/03/26 05:28:04;;;;;;;50.42;14.57;;;;;;;1.42;75.49;100686.03;4958053;28;20038;-50
2022/03/26 05:30:29;;;;;;;42.33;16.00;;;;;;;1.33;75.96;100684.25;4962756;28;20405;-49
2022/03/26 05:32:55;;;;;;;34.72;14.80;;;;;;;1.44;76.93;100686.69;4961714;28;20046;-52
2022/03/26 05:35:21;;;;;;;32.92;14.45;;;;;;;1.41;78.52;100687.00;4962732;28;20486;-52
2022/03/26 05:37:47;;;;;;;27.60;14.32;;;;;;;1.72;79.28;100699.88;4950676;28;20058;-52
2022/03/26 05:40:16;;;;;;;29.27;14.55;;;;;;;1.85;75.32;100695.06;4963275;28;20050;-53
2022/03/26 05:42:42;;;;;;;31.35;14.75;;;;;;;2.08;76.06;100697.28;4974472;28;20062;-52
2022/03/26 05:45:07;;;;;;;33.97;15.00;;;;;;;2.21;73.96;100700.34;4968280;28;20042;-49
2022/03/26 05:47:33;;;;;;;29.58;14.43;;;;;;;1.93;73.84;100696.97;4968704;28;20034;-49
2022/03/26 05:49:59;;;;;;;32.17;14.90;;;;;;;2.61;77.40;100701.66;4968470;28;20034;-50
2022/03/26 05:52:24;;;;;;;35.50;15.50;;;;;;;2.72;73.29;100704.06;4963257;28;20520;-53
2022/03/26 05:54:50;;;;;;;29.73;14.23;;;;;;;3.10;73.72;100698.50;4965639;28;20282;-53
2022/03/26 05:57:15;;;;;;;30.40;15.20;;;;;;;3.82;68.08;100701.56;4957436;28;20193;-51
2022/03/26 05:59:41;;;;;;;31.70;14.63;;;;;;;5.38;63.81;100699.59;4956678;28;20039;-52
2022/03/26 06:02:06;;;;;;;28.40;15.13;;;;;;;6.37;58.87;100706.03;4962997;28;20054;-49
2022/03/26 06:04:33;;;;;;;31.10;16.48;;;;;;;6.99;55.86;100710.31;4960956;28;20081;-49
2022/03/26 06:06:59;;;;;;;34.45;15.20;;;;;;;8.36;52.13;100701.63;4968899;28;20228;-51
2022/03/26 06:09:24;;;;;;;30.67;14.73;;;;;;;9.04;49.86;100707.34;4967012;28;20117;-50
2022/03/26 06:11:50;;;;;;;27.17;14.10;;;;;;;9.55;47.56;100712.31;4960255;28;20050;-52
2022/03/26 06:14:17;;;;;;;28.15;14.93;;;;;;;9.02;48.22;100709.38;4960273;28;20117;-50
2022/03/26 06:16:44;;;;;;;39.65;14.85;;;;;;;9.14;48.74;100721.19;4965514;28;20102;-52
2022/03/26 06:19:09;;;;;;;24.13;14.65;;;;;;;9.06;48.34;100718.63;4965333;28;20261;-52
2022/03/26 06:21:35;;;;;;;35.83;15.48;;;;;;;9.71;46.71;100722.69;4970162;28;20047;-50
2022/03/26 06:24:01;;;;;;;28.20;15.23;;;;;;;9.00;47.80;100724.78;4969170;28;20406;-50
2022/03/26 06:26:26;;;;;;;29.73;14.65;;;;;;;9.76;47.05;100731.97;4965686;28;20043;-51
2022/03/26 06:28:52;;;;;;;28.90;15.50;;;;;;;10.56;44.90;100741.88;4947262;28;20301;-52
2022/03/26 06:31:18;;;;;;;31.90;15.50;;;;;;;10.22;45.51;100739.31;4939731;28;20556;-52
2022/03/26 06:33:43;;;;;;;32.60;15.63;;;;;;;10.03;46.07;100739.06;4938098;29;20117;-51
2022/03/26 06:36:09;;;;;;;40.00;15.95;;;;;;;10.99;44.22;100740.63;4942963;28;20047;-52
2022/03/26 06:38:38;;;;;;;31.55;16.48;;;;;;;10.25;45.56;100734.38;4941767;29;20492;-51
2022/03/26 06:41:06;;;;;;;31.95;16.08;;;;;;;10.10;46.10;100737.22;4937971;28;20051;-52
2022/03/26 06:43:31;;;;;;;27.20;16.25;;;;;;;10.25;45.67;100738.91;4939280;28;20032;-53
2022/03/26 06:45:57;;;;;;;30.40;16.98;;;;;;;11.09;44.91;100740.22;4940768;28;20058;-51
2022/03/26 06:48:22;;;;;;;34.33;17.55;;;;;;;10.45;45.66;100745.16;4942450;29;20047;-52
2022/03/26 06:50:47;;;;;;;33.08;16.95;;;;;;;11.09;44.33;100741.03;4938200;28;20043;-51
2022/03/26 06:53:13;;;;;;;32.05;17.50;;;;;;;10.69;44.88;100737.56;4938562;28;20043;-52
2022/03/26 06:55:38;;;;;;;32.70;16.88;;;;;;;9.82;46.46;100737.34;4938662;28;20421;-53
2022/03/26 06:58:04;;;;;;;33.53;17.75;;;;;;;10.60;45.46;100741.47;4936729;28;20035;-53
2022/03/26 07:00:29;;;;;;;39.28;17.90;;;;;;;10.67;44.99;100745.78;4939205;28;20054;-53
2022/03/26 07:02:55;;;;;;;32.78;17.85;;;;;;;10.95;44.43;100745.56;4942114;28;20031;-52
2022/03/26 07:05:20;;;;;;;29.45;16.70;;;;;;;11.10;44.92;100757.94;4943751;28;20766;-53
2022/03/26 07:07:46;;;;;;;38.22;18.63;;;;;;;11.06;44.43;100748.66;4950322;28;20613;-52
2022/03/26 07:10:12;;;;;;;34.13;17.23;;;;;;;11.55;43.83;100760.75;4938260;28;20028;-50
2022/03/26 07:12:37;;;;;;;63.85;35.13;;;;;;;11.67;44.00;100759.03;4941318;28;20035;-51
2022/03/26 07:15:04;;;;;;;41.13;26.40;;;;;;;11.55;43.78;100769.63;4937512;28;20399;-52
2022/03/26 07:17:30;;;;;;;92.53;60.33;;;;;;;10.70;45.08;100768.69;4942495;29;20038;-53
2022/03/26 07:19:55;;;;;;;75.53;50.08;;;;;;;11.19;44.73;100767.44;4932220;29;20035;-50
2022/03/26 07:22:21;;;;;;;35.63;21.55;;;;;;;11.49;44.38;100766.97;4936987;28;20051;-51
2022/03/26 07:24:46;;;;;;;41.67;19.92;;;;;;;11.61;44.01;100771.47;4945575;29;20232;-50
2022/03/26 07:27:12;;;;;;;38.78;20.13;;;;;;;11.93;43.13;100766.22;4938068;28;20051;-52
2022/03/26 07:29:40;;;;;;;42.78;22.27;;;;;;;11.63;44.02;100764.03;4936997;29;20051;-52
2022/03/26 07:32:06;;;;;;;36.50;18.73;;;;;;;11.94;43.70;100769.72;4948804;28;20411;-53
2022/03/26 07:34:32;;;;;;;63.15;36.42;;;;;;;11.95;44.24;100761.44;4938391;29;20031;-53
2022/03/26 07:36:57;;;;;;;38.35;21.25;;;;;;;12.51;42.15;100770.63;4934771;28;20047;-53
2022/03/26 07:39:23;;;;;;;55.45;42.33;;;;;;;12.04;43.78;100770.91;4935038;29;20012;-53
2022/03/26 07:41:48;;;;;;;39.10;22.42;;;;;;;12.08;44.28;100776.66;4935402;28;20542;-52
2022/03/26 07:44:13;;;;;;;40.00;21.25;;;;;;;12.06;44.47;100784.13;4937613;29;20047;-51
2022/03/26 07:46:39;;;;;;;31.58;18.48;;;;;;;12.42;45.48;100788.88;4935426;28;20073;-53
2022/03/26 07:49:05;;;;;;;35.45;20.20;;;;;;;12.48;45.10;100789.88;4938561;28;20103;-50
2022/03/26 07:51:30;;;;;;;33.92;18.58;;;;;;;12.02;45.17;100789.09;4943334;28;20047;-53
2022/03/26 07:53:56;;;;;;;34.88;20.15;;;;;;;11.56;46.77;100794.63;4934582;29;20031;-51
2022/03/26 07:56:21;;;;;;;33.80;19.30;;;;;;;12.18;45.95;100787.81;4934164;28;20047;-51
2022/03/26 07:58:49;;;;;;;35.55;18.50;;;;;;;11.76;46.17;100795.38;4933304;28;20020;-50
2022/03/26 08:01:14;;;;;;;37.53;19.75;;;;;;;12.07;46.48;100796.53;4934093;28;20087;-51
2022/03/26 08:03:40;;;;;;;31.30;20.38;;;;;;;12.15;45.85;100790.91;4932852;29;20386;-51
2022/03/26 08:06:06;;;;;;;35.38;20.13;;;;;;;12.27;45.52;100802.63;4934242;28;20043;-52
2022/03/26 08:08:31;;;;;;;41.58;19.08;;;;;;;12.67;44.91;100794.31;4934594;28;20047;-50
2022/03/26 08:10:57;;;;;;;37.17;18.17;;;;;;;13.34;43.84;100804.53;4934095;28;20047;-52
2022/03/26 08:13:22;;;;;;;33.75;18.45;;;;;;;13.21;43.90;100801.97;4934463;29;20043;-58
2022/03/26 08:15:48;;;;;;;37.65;18.83;;;;;;;13.54;43.85;100807.84;4933151;28;20039;-51
2022/03/26 08:18:15;;;;;;;36.03;19.20;;;;;;;13.48;44.63;100808.75;4938052;29;20039;-52
2022/03/26 08:20:40;;;;;;;44.15;21.63;;;;;;;13.64;43.58;100801.13;4940535;28;20763;-52
2022/03/26 08:23:06;;;;;;;36.10;20.67;;;;;;;13.89;43.46;100806.44;4937401;29;20035;-51
2022/03/26 08:28:15;;;;;;;39.88;19.83;;;;;;;14.35;42.68;100807.69;4934322;29;20046;-51
2022/03/26 08:30:41;;;;;;;46.92;20.05;;;;;;;14.91;41.50;100808.38;4938630;28;20051;-53
2022/03/26 08:33:07;;;;;;;44.63;21.63;;;;;;;14.24;41.87;100812.00;4938652;28;20035;-52
2022/03/26 08:35:36;;;;;;;40.00;20.20;;;;;;;14.64;41.81;100806.88;4932673;28;20046;-49
2022/03/26 08:38:01;;;;;;;39.28;20.15;;;;;;;14.07;42.99;100805.59;4933366;29;20040;-53
2022/03/26 08:40:27;;;;;;;33.42;20.20;;;;;;;14.16;42.57;100806.94;4932786;28;20051;-50
2022/03/26 08:42:52;;;;;;;42.88;20.50;;;;;;;14.56;41.93;100809.94;4937919;29;20034;-54
2022/03/26 08:45:19;;;;;;;41.42;20.00;;;;;;;15.19;40.97;100803.09;4930887;28;20420;-52
2022/03/26 08:47:45;;;;;;;43.53;21.00;;;;;;;15.15;41.64;100806.50;4933013;29;20032;-51
2022/03/26 08:50:10;;;;;;;36.63;20.38;;;;;;;15.90;40.34;100806.59;4932867;28;20481;-52
2022/03/26 08:52:37;;;;;;;45.13;20.38;;;;;;;16.22;40.08;100800.69;4933097;29;20423;-55
2022/03/26 08:55:02;;;;;;;41.50;20.48;;;;;;;16.05;40.48;100800.66;4938339;28;20530;-54
2022/03/26 08:57:28;;;;;;;37.42;20.42;;;;;;;15.87;40.98;100800.81;4933055;29;20031;-52
2022/03/26 08:59:53;;;;;;;45.30;20.15;;;;;;;15.51;41.48;100797.34;4933405;28;20390;-52
2022/03/26 09:02:19;;;;;;;34.63;19.70;;;;;;;16.23;41.10;100802.34;4931707;28;20035;-53
2022/03/26 09:04:45;;;;;;;41.53;22.48;;;;;;;16.51;40.89;100793.41;4933630;29;20036;-52
2022/03/26 09:07:10;;;;;;;42.08;21.63;;;;;;;16.87;39.73;100798.63;4947389;28;20068;-51
2022/03/26 09:09:36;;;;;;;48.75;21.48;;;;;;;16.33;39.23;100799.03;4938147;29;20114;-50
2022/03/26 09:12:02;;;;;;;45.42;22.73;;;;;;;16.83;39.58;100795.59;4957624;28;20051;-53
2022/03/26 09:14:27;;;;;;;49.03;23.45;;;;;;;17.70;36.54;100802.31;4964354;28;20038;-50
2022/03/26 09:16:52;;;;;;;46.05;23.20;;;;;;;16.85;38.68;100798.03;4945514;28;20035;-51
2022/03/26 09:19:19;;;;;;;40.60;21.80;;;;;;;17.09;38.44;100798.72;4949380;29;20020;-53
2022/03/26 09:21:46;;;;;;;43.40;23.52;;;;;;;16.26;39.28;100801.06;4942286;28;20047;-53
2022/03/26 09:24:13;;;;;;;43.88;22.10;;;;;;;17.38;36.59;100807.56;4939712;29;20039;-54
2022/03/26 09:26:39;;;;;;;42.67;22.75;;;;;;;17.34;36.96;100801.78;4946425;28;20505;-54
2022/03/26 09:29:04;;;;;;;48.08;23.73;;;;;;;17.98;35.91;100800.50;4938349;29;20442;-51
2022/03/26 09:31:33;;;;;;;45.22;24.33;;;;;;;18.02;35.11;100801.63;4939781;28;20465;-53
2022/03/26 09:33:58;;;;;;;53.67;23.58;;;;;;;17.72;35.39;100802.84;4942600;28;20107;-53
2022/03/26 09:36:24;;;;;;;46.60;23.08;;;;;;;18.19;34.52;100807.78;4949156;28;20047;-53
2022/03/26 09:38:49;;;;;;;44.40;23.40;;;;;;;17.58;35.74;100802.41;4949213;28;20031;-54
2022/03/26 09:41:16;;;;;;;44.20;22.67;;;;;;;17.53;35.53;100813.19;4943875;28;20505;-53
2022/03/26 09:43:41;;;;;;;52.42;24.27;;;;;;;17.54;34.83;100808.56;4946153;28;20035;-52
2022/03/26 09:46:07;;;;;;;50.80;24.42;;;;;;;17.59;34.51;100800.50;4926602;28;20098;-53
2022/03/26 09:48:32;;;;;;;40.50;21.67;;;;;;;17.99;36.83;100804.84;4945205;28;20031;-50
2022/03/26 09:50:57;;;;;;;49.25;23.30;;;;;;;17.74;36.54;100806.13;4941607;28;20044;-53
2022/03/26 09:53:23;;;;;;;48.55;24.27;;;;;;;18.47;34.71;100805.91;4925779;29;20063;-52
2022/03/26 09:55:48;;;;;;;55.88;25.80;;;;;;;18.28;34.52;100797.31;4945759;28;20379;-52
2022/03/26 09:58:14;;;;;;;59.75;28.35;;;;;;;17.63;36.71;100804.38;4947946;29;20103;-53
2022/03/26 10:00:39;;;;;;;52.50;28.85;;;;;;;17.99;35.01;100796.69;4946683;28;20283;-53
2022/03/26 10:03:05;;;;;;;61.58;25.83;;;;;;;18.17;34.43;100790.13;4947688;29;20050;-52
2022/03/26 10:05:31;;;;;;;45.58;23.85;;;;;;;17.45;34.05;100798.16;4941489;28;20039;-51
2022/03/26 10:07:57;;;;;;;52.20;23.02;;;;;;;16.36;35.70;100799.34;4961117;28;20034;-52
2022/03/26 10:10:23;;;;;;;46.90;25.77;;;;;;;16.32;36.60;100800.88;4964945;28;20351;-51
2022/03/26 10:12:50;;;;;;;52.97;26.00;;;;;;;16.72;36.03;100793.75;4961836;28;20031;-51
2022/03/26 10:15:15;;;;;;;53.95;25.98;;;;;;;17.11;36.39;100796.56;4963591;28;20035;-53
2022/03/26 10:17:40;;;;;;;49.47;23.15;;;;;;;17.86;35.21;100801.44;4980199;28;20030;-51
2022/03/26 10:20:08;;;;;;;50.30;24.63;;;;;;;18.73;33.24;100802.34;4959912;28;20054;-51
2022/03/26 10:22:34;;;;;;;46.03;23.30;;;;;;;18.82;32.30;100793.75;4962422;28;20031;-50
2022/03/26 10:25:04;;;;;;;51.33;25.55;;;;;;;17.29;33.93;100793.59;4960683;28;20089;-51
2022/03/26 10:27:51;;;;;;;51.72;23.75;;;;;;;17.85;34.28;100791.66;4939087;28;20048;-52
2022/03/26 10:33:29;;;;;;;49.05;24.13;;;;;;;16.61;35.73;100796.28;4962433;28;20050;-51
2022/03/26 10:35:58;;;;;;;52.13;25.80;;;;;;;17.27;34.93;100786.78;4951957;28;20506;-52
2022/03/26 10:38:34;;;;;;;47.72;23.30;;;;;;;16.81;35.75;100778.78;4962761;28;20035;-53
2022/03/26 10:41:02;;;;;;;50.50;23.55;;;;;;;16.31;36.65;100785.72;4963518;28;20503;-52
2022/03/26 10:43:28;;;;;;;53.28;24.05;;;;;;;17.29;35.19;100782.75;4961579;28;20031;-53
2022/03/26 10:45:59;;;;;;;45.58;22.38;;;;;;;18.23;33.96;100770.94;4959079;28;20045;-51
2022/03/26 10:48:26;;;;;;;54.63;24.45;;;;;;;17.60;34.88;100778.59;4951337;28;20381;-50
2022/03/26 10:50:58;;;;;;;46.65;23.10;;;;;;;16.95;34.74;100782.81;4958598;28;20058;-50
2022/03/26 10:53:35;;;;;;;46.50;23.08;;;;;;;17.53;34.35;100779.84;4969016;28;20433;-51
2022/03/26 10:56:02;;;;;;;48.08;21.98;;;;;;;17.56;33.51;100782.84;4964892;28;20051;-53
2022/03/26 10:58:27;;;;;;;43.60;22.83;;;;;;;17.33;34.93;100769.53;4967563;28;20041;-51
2022/03/26 11:00:53;;;;;;;45.45;21.52;;;;;;;17.02;34.68;100775.34;4963247;28;20039;-52
2022/03/26 11:03:18;;;;;;;50.42;23.10;;;;;;;16.55;35.14;100766.69;4928610;28;20393;-54
2022/03/26 11:05:44;;;;;;;47.70;22.75;;;;;;;16.67;35.85;100761.16;4969189;28;20117;-51
2022/03/26 11:08:09;;;;;;;51.72;21.75;;;;;;;16.41;35.69;100765.34;4948250;28;20046;-52
2022/03/26 11:10:34;;;;;;;41.03;20.13;;;;;;;16.64;35.62;100761.66;4969607;28;20596;-52
2022/03/26 11:13:01;;;;;;;42.83;20.50;;;;;;;16.19;35.56;100757.91;4969925;28;20454;-52
2022/03/26 11:15:37;;;;;;;53.13;22.73;;;;;;;15.91;36.52;100761.44;4970249;28;20045;-51